createdAt,value
2019-02-19T00:00:22.487Z,94.10
2019-02-19T00:02:51.474Z,94.30
2019-02-19T00:05:20.434Z,94.10
2019-02-19T00:07:49.440Z,94.80
2019-02-19T00:10:18.403Z,95.50
2019-02-19T00:12:47.387Z,94.70
2019-02-19T00:15:16.362Z,94.90
2019-02-19T00:17:45.346Z,94.70
2019-02-19T00:20:14.382Z,95.30
2019-02-19T00:22:43.363Z,95.10
2019-02-19T00:25:12.393Z,94.90
2019-02-19T00:27:41.556Z,94.60
2019-02-19T00:30:10.657Z,94.50
2019-02-19T00:32:39.623Z,95.50
2019-02-19T00:35:08.665Z,94.90
2019-02-19T00:37:37.723Z,95.40
2019-02-19T00:40:07.430Z,95.20
2019-02-19T00:42:36.470Z,95.20
2019-02-19T00:45:06.382Z,94.70
2019-02-19T00:47:35.358Z,94.90
2019-02-19T00:50:05.866Z,94.90
2019-02-19T00:52:34.834Z,95.00
2019-02-19T00:55:04.634Z,94.30
2019-02-19T00:57:33.623Z,94.10
2019-02-19T01:00:02.578Z,94.20
2019-02-19T01:02:31.570Z,94.10
2019-02-19T01:05:00.696Z,94.00
2019-02-19T01:07:29.747Z,93.70
2019-02-19T01:09:58.707Z,93.70
2019-02-19T01:12:27.689Z,93.60
2019-02-19T01:14:56.998Z,93.60
2019-02-19T01:17:26.002Z,93.50
2019-02-19T01:19:54.954Z,93.60
2019-02-19T01:22:23.944Z,93.50
2019-02-19T01:24:53.162Z,93.40
2019-02-19T01:27:22.156Z,93.60
2019-02-19T01:29:51.119Z,93.70
2019-02-19T01:32:20.094Z,93.40
2019-02-19T01:34:49.154Z,93.50
2019-02-19T01:37:18.221Z,93.60
2019-02-19T01:39:47.889Z,93.80
2019-02-19T01:42:16.858Z,93.50
2019-02-19T01:44:45.830Z,93.50
2019-02-19T01:47:14.861Z,93.50
2019-02-19T01:49:43.835Z,93.60
2019-02-19T01:52:12.791Z,93.60
2019-02-19T01:54:41.762Z,93.90
2019-02-19T01:57:10.714Z,93.90
2019-02-19T01:59:39.706Z,94.10
2019-02-19T02:02:08.653Z,93.80
2019-02-19T02:04:37.634Z,94.10
2019-02-19T02:07:06.608Z,94.20
2019-02-19T02:09:35.584Z,94.30
2019-02-19T02:12:04.544Z,94.10
2019-02-19T02:14:33.530Z,94.00
2019-02-19T02:17:02.494Z,94.00
2019-02-19T02:19:31.466Z,94.30
2019-02-19T02:22:00.421Z,94.30
2019-02-19T02:24:30.389Z,93.80
2019-02-19T02:26:59.381Z,94.10
2019-02-19T02:29:28.342Z,94.00
2019-02-19T02:31:57.303Z,94.20
2019-02-19T02:34:26.367Z,94.20
2019-02-19T02:36:55.327Z,94.10
2019-02-19T02:39:24.300Z,94.10
2019-02-19T02:41:53.263Z,94.30
2019-02-19T02:44:22.242Z,94.60
2019-02-19T02:46:51.202Z,94.70
2019-02-19T02:49:20.176Z,94.70
2019-02-19T02:51:49.240Z,94.80
2019-02-19T02:54:18.201Z,95.00
2019-02-19T02:56:47.242Z,95.20
2019-02-19T02:59:16.210Z,95.00
2019-02-19T03:01:45.167Z,95.10
2019-02-19T03:04:14.332Z,95.40
2019-02-19T03:06:56.939Z,95.70
2019-02-19T03:09:25.994Z,95.30
2019-02-19T03:11:55.002Z,95.80
2019-02-19T03:14:23.988Z,95.50
2019-02-19T03:16:52.937Z,95.40
2019-02-19T03:19:21.906Z,95.40
2019-02-19T03:21:50.863Z,95.40
2019-02-19T03:24:19.871Z,95.70
2019-02-19T03:26:48.842Z,95.70
2019-02-19T03:29:17.818Z,95.50
2019-02-19T03:31:46.788Z,95.10
2019-02-19T03:34:15.743Z,95.40
2019-02-19T03:36:44.698Z,95.90
2019-02-19T03:39:13.665Z,94.90
2019-02-19T03:41:42.624Z,95.20
2019-02-19T03:44:11.594Z,95.10
2019-02-19T03:46:40.571Z,94.80
2019-02-19T03:49:09.683Z,94.80
2019-02-19T03:51:38.716Z,95.00
2019-02-19T03:54:07.824Z,95.10
2019-02-19T03:56:36.919Z,95.30
2019-02-19T03:59:05.905Z,95.50
2019-02-19T04:01:35.028Z,95.70
2019-02-19T04:04:03.998Z,95.60
2019-02-19T04:06:32.968Z,96.10
2019-02-19T04:09:01.937Z,95.80
2019-02-19T04:11:30.899Z,95.20
2019-02-19T04:13:59.918Z,95.40
2019-02-19T04:16:28.875Z,95.50
2019-02-19T04:18:57.850Z,95.50
2019-02-19T04:21:26.849Z,95.80
2019-02-19T04:23:55.838Z,96.50
2019-02-19T04:26:24.798Z,96.50
2019-02-19T04:28:53.777Z,96.00
2019-02-19T04:31:22.821Z,96.20
2019-02-19T04:33:51.774Z,96.00
2019-02-19T04:36:20.750Z,96.50
2019-02-19T04:38:49.727Z,96.60
2019-02-19T04:41:18.764Z,96.10
2019-02-19T04:43:47.735Z,96.70
2019-02-19T04:46:16.779Z,97.70
2019-02-19T04:48:45.745Z,97.90
2019-02-19T04:51:14.729Z,98.00
2019-02-19T04:53:43.684Z,97.70
2019-02-19T04:56:12.658Z,97.70
2019-02-19T04:58:41.638Z,98.00
2019-02-19T05:01:10.598Z,98.00
2019-02-19T05:03:39.569Z,98.40
2019-02-19T05:06:08.542Z,98.00
2019-02-19T05:08:37.565Z,98.50
2019-02-19T05:11:06.809Z,98.60
2019-02-19T05:13:35.810Z,98.30
2019-02-19T05:16:04.769Z,98.40
2019-02-19T05:18:33.805Z,98.10
2019-02-19T05:21:02.773Z,98.00
2019-02-19T05:23:31.733Z,97.70
2019-02-19T05:26:00.705Z,97.60
2019-02-19T05:28:29.670Z,97.80
2019-02-19T05:30:58.645Z,97.50
2019-02-19T05:33:27.600Z,97.30
2019-02-19T05:35:56.640Z,97.30
2019-02-19T05:38:25.764Z,97.30
2019-02-19T05:40:54.906Z,97.40
2019-02-19T05:43:23.872Z,97.50
2019-02-19T05:45:52.835Z,97.10
2019-02-19T05:48:21.873Z,97.00
2019-02-19T05:50:50.943Z,96.90
2019-02-19T05:53:19.891Z,97.00
2019-02-19T05:55:48.949Z,96.70
2019-02-19T05:58:17.930Z,96.50
2019-02-19T06:00:47.019Z,96.50
2019-02-19T06:03:15.998Z,96.70
2019-02-19T06:05:44.962Z,96.60
2019-02-19T06:08:13.938Z,96.60
2019-02-19T06:10:44.171Z,96.40
2019-02-19T06:13:13.721Z,96.40
2019-02-19T06:15:42.893Z,96.30
2019-02-19T06:18:12.125Z,96.40
2019-02-19T06:20:41.106Z,96.60
2019-02-19T06:23:10.058Z,96.40
2019-02-19T06:25:39.039Z,96.70
2019-02-19T06:28:08.003Z,97.00
2019-02-19T06:30:37.006Z,97.00
2019-02-19T06:33:05.966Z,96.80
2019-02-19T06:35:34.944Z,96.90
2019-02-19T06:38:03.940Z,96.60
2019-02-19T06:40:32.899Z,96.70
2019-02-19T06:43:01.858Z,97.00
2019-02-19T06:45:30.833Z,97.00
2019-02-19T06:47:59.793Z,97.00
2019-02-19T06:50:28.881Z,96.90
2019-02-19T06:52:57.851Z,96.80
2019-02-19T06:55:26.846Z,96.70
2019-02-19T06:57:56.808Z,96.70
2019-02-19T07:00:25.766Z,96.50
2019-02-19T07:03:05.091Z,96.60
2019-02-19T07:05:34.138Z,96.70
2019-02-19T07:08:03.148Z,96.70
2019-02-19T07:10:32.126Z,96.80
2019-02-19T07:13:01.162Z,96.70
2019-02-19T07:15:30.134Z,96.90
2019-02-19T07:17:59.120Z,96.70
2019-02-19T07:20:28.081Z,96.50
2019-02-19T07:22:57.078Z,96.40
2019-02-19T07:25:26.030Z,96.40
2019-02-19T07:27:55.036Z,96.20
2019-02-19T07:30:23.993Z,96.10
2019-02-19T07:32:52.975Z,96.40
2019-02-19T07:35:21.944Z,96.60
2019-02-19T07:37:50.934Z,96.50
2019-02-19T07:40:20.029Z,96.60
2019-02-19T07:42:48.993Z,96.80
2019-02-19T07:45:17.998Z,96.80
2019-02-19T07:47:46.938Z,96.90
2019-02-19T07:50:16.009Z,97.20
2019-02-19T07:52:44.995Z,97.00
2019-02-19T07:55:14.090Z,97.20
2019-02-19T07:57:43.068Z,97.10
2019-02-19T08:00:13.280Z,97.20
2019-02-19T08:02:42.414Z,97.30
2019-02-19T08:05:11.477Z,97.60
2019-02-19T08:07:40.458Z,97.90
2019-02-19T08:10:11.435Z,97.40
2019-02-19T08:12:40.415Z,98.00
2019-02-19T08:15:11.112Z,98.40
2019-02-19T08:17:40.258Z,98.60
2019-02-19T08:20:15.759Z,99.50
2019-02-19T08:22:40.713Z,99.40
2019-02-19T08:25:09.835Z,99.70
2019-02-19T08:27:38.855Z,99.90
2019-02-19T08:30:11.085Z,99.90
2019-02-19T08:32:40.436Z,99.90
2019-02-19T08:35:09.405Z,99.90
2019-02-19T08:37:38.380Z,99.90
2019-02-19T08:40:09.483Z,99.90
2019-02-19T08:42:38.462Z,99.90
2019-02-19T08:45:09.473Z,99.90
2019-02-19T08:47:42.612Z,99.90
2019-02-19T08:50:09.194Z,99.90
2019-02-19T08:52:38.184Z,99.90
2019-02-19T08:55:07.690Z,99.90
2019-02-19T08:57:36.682Z,99.90
2019-02-19T09:00:08.772Z,99.90
2019-02-19T09:02:37.839Z,99.90
2019-02-19T09:05:07.798Z,99.90
2019-02-19T09:07:36.790Z,99.90
2019-02-19T09:10:08.867Z,99.90
2019-02-19T09:12:37.868Z,99.90
2019-02-19T09:15:11.934Z,99.90
2019-02-19T09:17:41.095Z,99.90
2019-02-19T09:20:11.207Z,99.90
2019-02-19T09:22:40.169Z,99.90
2019-02-19T09:25:09.139Z,99.90
2019-02-19T09:27:38.238Z,99.90
2019-02-19T09:30:10.533Z,99.90
2019-02-19T09:32:39.503Z,99.90
2019-02-19T09:35:09.439Z,99.90
2019-02-19T09:37:38.433Z,99.90
2019-02-19T09:40:09.423Z,99.90
2019-02-19T09:42:38.489Z,99.90
2019-02-19T09:45:09.705Z,99.90
2019-02-19T09:47:38.694Z,99.90
2019-02-19T09:50:09.702Z,99.90
2019-02-19T09:52:38.682Z,99.90
2019-02-19T09:55:08.356Z,99.90
2019-02-19T09:57:37.334Z,99.90
2019-02-19T10:00:13.702Z,99.90
2019-02-19T10:02:43.956Z,99.90
2019-02-19T10:05:13.206Z,99.90
2019-02-19T10:07:42.191Z,99.90
2019-02-19T10:10:14.400Z,99.90
2019-02-19T10:12:43.496Z,99.90
2019-02-19T10:15:13.397Z,99.90
2019-02-19T10:17:42.495Z,99.90
2019-02-19T10:20:13.408Z,99.90
2019-02-19T10:22:42.217Z,99.90
2019-02-19T10:25:14.657Z,99.90
2019-02-19T10:27:43.624Z,99.90
2019-02-19T10:30:19.645Z,99.90
2019-02-19T10:32:48.694Z,99.90
2019-02-19T10:35:17.674Z,99.90
2019-02-19T10:37:46.642Z,99.90
2019-02-19T10:40:17.331Z,99.90
2019-02-19T10:42:46.448Z,99.90
2019-02-19T10:45:18.327Z,99.90
2019-02-19T10:47:47.308Z,99.90
2019-02-19T10:50:16.276Z,99.90
2019-02-19T10:52:45.784Z,99.90
2019-02-19T10:55:14.854Z,99.90
2019-02-19T10:57:43.829Z,99.90
2019-02-19T11:00:20.299Z,99.90
2019-02-19T11:02:49.272Z,99.90
2019-02-19T11:05:18.334Z,99.90
2019-02-19T11:07:47.287Z,99.90
2019-02-19T11:10:16.292Z,99.90
2019-02-19T11:12:45.272Z,99.90
2019-02-19T11:15:15.209Z,99.90
2019-02-19T11:17:44.337Z,99.90
2019-02-19T11:20:18.751Z,99.90
2019-02-19T11:22:47.782Z,99.90
2019-02-19T11:25:16.770Z,99.90
2019-02-19T11:27:45.815Z,99.90
2019-02-19T11:30:16.763Z,99.90
2019-02-19T11:32:45.754Z,99.90
2019-02-19T11:35:14.851Z,99.90
2019-02-19T11:37:43.845Z,99.90
2019-02-19T11:40:14.169Z,99.90
2019-02-19T11:42:43.244Z,99.90
2019-02-19T11:45:15.310Z,99.90
2019-02-19T11:47:44.422Z,99.90
2019-02-19T11:50:14.156Z,99.90
2019-02-19T11:52:43.126Z,99.90
2019-02-19T11:55:14.823Z,99.90
2019-02-19T11:57:43.879Z,99.90
2019-02-19T12:00:24.399Z,99.90
2019-02-19T12:02:53.370Z,99.90
2019-02-19T12:05:22.374Z,99.90
2019-02-19T12:07:51.359Z,99.90
2019-02-19T12:10:20.353Z,99.90
2019-02-19T12:12:49.323Z,99.90
2019-02-19T12:15:19.286Z,99.90
2019-02-19T12:17:48.507Z,99.90
2019-02-19T12:20:17.509Z,99.90
2019-02-19T12:22:46.568Z,99.90
2019-02-19T12:25:15.598Z,99.90
2019-02-19T12:27:44.814Z,99.90
2019-02-19T12:30:19.030Z,99.90
2019-02-19T12:32:48.056Z,99.90
2019-02-19T12:35:17.213Z,99.90
2019-02-19T12:37:46.176Z,99.80
2019-02-19T12:40:15.280Z,99.90
2019-02-19T12:42:44.293Z,99.90
2019-02-19T12:45:17.479Z,98.70
2019-02-19T12:47:46.546Z,99.00
2019-02-19T12:50:19.178Z,98.80
2019-02-19T12:52:48.316Z,98.30
2019-02-19T12:55:17.297Z,97.60
2019-02-19T12:57:46.332Z,98.10
2019-02-19T13:00:19.419Z,96.10
2019-02-19T13:02:48.385Z,96.40
2019-02-19T13:05:17.656Z,95.80
2019-02-19T13:07:47.154Z,96.60
2019-02-19T13:10:16.407Z,95.60
2019-02-19T13:12:45.428Z,93.40
2019-02-19T13:15:17.510Z,93.80
2019-02-19T13:17:46.559Z,93.20
2019-02-19T13:20:15.630Z,93.40
2019-02-19T13:22:44.703Z,91.80
2019-02-19T13:25:13.767Z,92.00
2019-02-19T13:27:42.810Z,88.50
2019-02-19T13:30:22.066Z,86.10
2019-02-19T13:32:51.450Z,86.50
2019-02-19T13:35:21.090Z,85.70
2019-02-19T13:37:50.154Z,87.50
2019-02-19T13:40:20.076Z,86.00
2019-02-19T13:42:49.179Z,86.30
2019-02-19T13:45:18.225Z,86.50
2019-02-19T13:47:47.193Z,86.90
2019-02-19T13:50:21.448Z,85.00
2019-02-19T13:52:52.064Z,85.00
2019-02-19T13:55:22.754Z,86.40
2019-02-19T13:57:51.723Z,83.70
2019-02-19T14:00:25.370Z,86.60
2019-02-19T14:02:54.425Z,84.60
2019-02-19T14:05:23.485Z,83.50
2019-02-19T14:07:52.615Z,82.80
2019-02-19T14:10:21.597Z,82.80
2019-02-19T14:12:50.601Z,81.40
2019-02-19T14:15:26.967Z,80.20
2019-02-19T14:17:56.210Z,80.00
2019-02-19T14:20:43.308Z,79.40
2019-02-19T14:23:30.447Z,79.10
2019-02-19T14:26:01.077Z,78.60
2019-02-19T14:28:48.647Z,79.60
2019-02-19T14:31:34.735Z,81.00
2019-02-19T14:34:05.354Z,79.10
2019-02-19T14:36:47.969Z,80.40
2019-02-19T14:39:24.649Z,77.60
2019-02-19T14:41:55.333Z,73.00
2019-02-19T14:44:28.664Z,69.70
2019-02-19T14:47:01.984Z,69.70
2019-02-19T14:49:37.472Z,70.30
2019-02-19T14:52:07.994Z,70.80
2019-02-19T14:54:38.659Z,70.80
2019-02-19T14:57:09.271Z,70.70
2019-02-19T14:59:40.011Z,68.60
2019-02-19T15:02:10.606Z,70.40
2019-02-19T15:04:46.712Z,67.70
2019-02-19T15:07:20.027Z,68.90
2019-02-19T15:09:50.763Z,67.60
2019-02-19T15:12:21.348Z,68.60
2019-02-19T15:14:54.641Z,67.80
2019-02-19T15:17:31.257Z,68.20
2019-02-19T15:20:01.859Z,70.00
2019-02-19T15:22:41.545Z,69.40
2019-02-19T15:25:12.237Z,69.50
2019-02-19T15:27:59.078Z,70.10
2019-02-19T15:30:32.227Z,68.00
2019-02-19T15:33:08.619Z,66.80
2019-02-19T15:35:39.238Z,66.40
2019-02-19T15:38:26.087Z,69.50
2019-02-19T15:40:56.690Z,69.30
2019-02-19T15:43:33.138Z,69.30
2019-02-19T15:46:12.370Z,68.80
2019-02-19T15:48:45.744Z,70.20
2019-02-19T15:51:28.779Z,69.70
2019-02-19T15:53:59.419Z,69.10
2019-02-19T15:56:32.786Z,70.00
2019-02-19T15:59:20.030Z,69.80
2019-02-19T16:01:53.086Z,70.20
2019-02-19T16:04:23.702Z,71.20
2019-02-19T16:06:54.370Z,71.10
2019-02-19T16:09:40.043Z,71.90
2019-02-19T16:12:10.663Z,73.40
2019-02-19T16:14:57.236Z,72.70
2019-02-19T16:17:30.649Z,71.90
2019-02-19T16:20:10.281Z,72.30
2019-02-19T16:22:41.009Z,72.50
2019-02-19T16:25:20.499Z,72.70
2019-02-19T16:28:01.362Z,72.80
2019-02-19T16:30:31.987Z,75.20
2019-02-19T16:33:05.313Z,74.70
2019-02-19T16:35:36.031Z,74.50
2019-02-19T16:38:22.826Z,74.90
2019-02-19T16:40:53.551Z,74.30
2019-02-19T16:43:40.574Z,75.10
2019-02-19T16:46:17.015Z,75.20
2019-02-19T16:48:47.699Z,74.90
2019-02-19T16:51:18.397Z,74.80
2019-02-19T16:54:01.009Z,75.00
2019-02-19T16:56:40.436Z,75.20
2019-02-19T16:59:21.489Z,76.10
2019-02-19T17:02:08.536Z,75.80
2019-02-19T17:04:47.892Z,76.50
2019-02-19T17:07:34.818Z,76.40
2019-02-19T17:10:06.489Z,77.30
2019-02-19T17:12:53.649Z,77.30
2019-02-19T17:15:40.507Z,77.50
2019-02-19T17:18:11.207Z,78.60
2019-02-19T17:20:41.845Z,78.40
2019-02-19T17:23:27.804Z,77.50
2019-02-19T17:25:58.418Z,79.30
2019-02-19T17:28:31.629Z,78.10
2019-02-19T17:31:11.235Z,78.60
2019-02-19T17:33:41.869Z,78.80
2019-02-19T17:36:15.219Z,79.40
2019-02-19T17:38:48.812Z,79.80
2019-02-19T17:41:28.194Z,80.40
2019-02-19T17:44:01.560Z,80.60
2019-02-19T17:46:48.262Z,81.20
2019-02-19T17:49:37.328Z,80.90
2019-02-19T17:52:07.930Z,81.50
2019-02-19T17:54:54.840Z,81.60
2019-02-19T17:57:31.529Z,82.80
2019-02-19T18:00:02.162Z,82.00
2019-02-19T18:02:38.725Z,82.60
2019-02-19T18:05:25.493Z,82.90
2019-02-19T18:07:58.627Z,82.60
2019-02-19T18:10:29.247Z,83.40
2019-02-19T18:13:14.979Z,84.00
2019-02-19T18:16:00.563Z,84.20
2019-02-19T18:18:49.472Z,84.80
2019-02-19T18:21:18.855Z,85.70
2019-02-19T18:23:47.912Z,85.70
2019-02-19T18:26:17.003Z,86.30
2019-02-19T18:28:46.019Z,88.00
2019-02-19T18:31:15.005Z,87.40
2019-02-19T18:33:43.994Z,87.40
2019-02-19T18:36:13.702Z,88.00
2019-02-19T18:38:42.863Z,89.10
2019-02-19T18:41:12.079Z,89.00
2019-02-19T18:43:41.094Z,88.90
2019-02-19T18:46:10.067Z,89.30
2019-02-19T18:48:39.129Z,88.70
2019-02-19T18:51:08.206Z,89.00
2019-02-19T18:53:37.188Z,89.50
2019-02-19T18:56:06.166Z,89.80
2019-02-19T18:58:35.227Z,90.20
2019-02-19T19:01:04.255Z,90.10
2019-02-19T19:03:33.307Z,90.20
2019-02-19T19:06:02.354Z,90.10
2019-02-19T19:08:31.403Z,90.10
2019-02-19T19:11:00.384Z,90.60
2019-02-19T19:13:29.518Z,90.50
2019-02-19T19:15:58.577Z,90.50
2019-02-19T19:18:27.551Z,90.60
2019-02-19T19:20:56.547Z,91.10
2019-02-19T19:23:25.535Z,91.50
2019-02-19T19:25:54.519Z,91.20
2019-02-19T19:28:23.548Z,91.10
2019-02-19T19:30:52.543Z,91.10
2019-02-19T19:33:21.533Z,91.20
2019-02-19T19:35:50.720Z,91.20
2019-02-19T19:38:19.827Z,91.20
2019-02-19T19:40:48.885Z,91.00
2019-02-19T19:43:17.939Z,91.40
2019-02-19T19:45:46.915Z,91.80
2019-02-19T19:48:15.929Z,91.80
2019-02-19T19:50:45.019Z,91.90
2019-02-19T19:53:14.204Z,91.80
2019-02-19T19:55:43.202Z,91.50
2019-02-19T19:58:12.248Z,91.80
2019-02-19T20:00:41.287Z,91.90
2019-02-19T20:03:10.374Z,92.00
2019-02-19T20:05:39.340Z,91.90
2019-02-19T20:08:08.426Z,92.10
2019-02-19T20:10:37.434Z,92.00
2019-02-19T20:13:06.387Z,92.40
2019-02-19T20:15:35.451Z,92.10
2019-02-19T20:18:04.608Z,92.00
2019-02-19T20:20:33.600Z,92.10
2019-02-19T20:23:02.721Z,92.40
2019-02-19T20:25:31.727Z,92.10
2019-02-19T20:28:00.803Z,92.10
2019-02-19T20:30:29.798Z,92.20
2019-02-19T20:32:58.911Z,92.10
2019-02-19T20:35:27.987Z,92.10
2019-02-19T20:37:57.057Z,92.60
2019-02-19T20:40:26.140Z,92.60
2019-02-19T20:42:55.306Z,92.60
2019-02-19T20:45:24.375Z,92.70
2019-02-19T20:47:53.356Z,92.80
2019-02-19T20:50:22.372Z,92.80
2019-02-19T20:52:51.334Z,92.90
2019-02-19T20:55:20.322Z,92.80
2019-02-19T20:57:49.324Z,92.90
2019-02-19T21:00:18.546Z,92.50
2019-02-19T21:02:47.582Z,92.80
2019-02-19T21:05:16.749Z,92.60
2019-02-19T21:07:45.813Z,92.70
2019-02-19T21:10:17.070Z,92.40
2019-02-19T21:12:46.061Z,92.90
2019-02-19T21:15:15.250Z,93.50
2019-02-19T21:17:44.227Z,93.60
2019-02-19T21:20:15.106Z,93.80
2019-02-19T21:22:44.079Z,93.80
2019-02-19T21:25:13.126Z,93.70
2019-02-19T21:27:42.109Z,94.00
2019-02-19T21:30:13.394Z,93.80
2019-02-19T21:32:42.369Z,94.00
2019-02-19T21:35:11.416Z,94.20
2019-02-19T21:37:40.413Z,94.60
2019-02-19T21:40:13.850Z,94.30
2019-02-19T21:42:42.860Z,94.30
2019-02-19T21:45:13.479Z,94.30
2019-02-19T21:47:42.561Z,94.50
2019-02-19T21:50:15.859Z,94.60
2019-02-19T21:52:45.194Z,94.90
2019-02-19T21:55:14.410Z,95.00
2019-02-19T21:57:43.453Z,94.70
2019-02-19T22:00:15.788Z,94.70
2019-02-19T22:02:44.852Z,94.50
2019-02-19T22:05:14.027Z,94.50
2019-02-19T22:07:43.167Z,94.60
2019-02-19T22:10:13.758Z,94.60
2019-02-19T22:12:42.815Z,94.30
2019-02-19T22:15:15.643Z,94.70
2019-02-19T22:17:44.642Z,95.10
2019-02-19T22:20:36.195Z,95.00
2019-02-19T22:23:05.698Z,95.00
2019-02-19T22:25:34.666Z,94.60
2019-02-19T22:28:03.814Z,94.90
2019-02-19T22:30:32.770Z,94.80
2019-02-19T22:33:01.852Z,94.90
2019-02-19T22:35:30.821Z,95.30
2019-02-19T22:37:59.869Z,95.60
2019-02-19T22:40:28.921Z,95.60
2019-02-19T22:42:57.967Z,95.10
2019-02-19T22:45:26.998Z,95.70
2019-02-19T22:47:55.986Z,95.30
2019-02-19T22:50:24.955Z,95.70
2019-02-19T22:52:54.019Z,95.00
2019-02-19T22:55:33.095Z,95.40
2019-02-19T22:58:02.160Z,95.30
2019-02-19T23:00:47.805Z,96.10
2019-02-19T23:03:18.446Z,95.80
2019-02-19T23:05:47.473Z,95.80
2019-02-19T23:08:16.459Z,96.10
2019-02-19T23:10:45.430Z,96.30
2019-02-19T23:13:15.200Z,96.30
2019-02-19T23:15:44.699Z,96.70
2019-02-19T23:18:13.699Z,96.60
2019-02-19T23:20:42.663Z,97.50
2019-02-19T23:23:11.625Z,97.50
2019-02-19T23:25:40.598Z,97.00
2019-02-19T23:28:09.559Z,97.10
2019-02-19T23:30:57.897Z,96.60
2019-02-19T23:33:26.872Z,97.10
2019-02-19T23:36:15.691Z,97.80
2019-02-19T23:38:44.667Z,98.70
2019-02-19T23:41:13.641Z,97.60
2019-02-19T23:43:42.627Z,97.60
2019-02-19T23:46:11.666Z,97.20
2019-02-19T23:48:40.695Z,97.40
2019-02-19T23:51:09.663Z,97.40
2019-02-19T23:53:38.638Z,96.60
2019-02-19T23:56:07.606Z,96.80
2019-02-19T23:58:36.576Z,96.60
